Time;durP1;ratioP1;P1;durP2;ratioP2;P2;SDS_P1;SDS_P2;PMS_P1;PMS_P2;Temp;Humidity;BMP_temperature;BMP_pressure;BME280_temperature;BME280_humidity;BME280_pressure;Samples;Min_cycle;Max_cycle;Signal;HPM_P1;HPM_P2
2023/10/22 00:00:58;;;;;;;13.10;8.40;;;;;;;14.62;100.00;96844.56;106600;1283;25031;-86
2023/10/22 00:03:46;;;;;;;12.80;11.50;;;;;;;14.58;100.00;96841.81;106692;1283;23009;-86
2023/10/22 00:06:14;;;;;;;14.10;11.60;;;;;;;14.54;100.00;96840.88;106681;1283;25415;-85
2023/10/22 00:08:43;;;;;;;16.90;15.10;;;;;;;14.47;100.00;96837.89;106688;1283;24221;-86
2023/10/22 00:11:11;;;;;;;17.90;13.90;;;;;;;14.40;100.00;96835.85;107242;1283;22776;-85
2023/10/22 00:13:38;;;;;;;17.50;13.30;;;;;;;14.35;100.00;96831.78;108538;1283;23471;-86
2023/10/22 00:16:06;;;;;;;7.80;5.40;;;;;;;14.31;100.00;96834.02;107863;1283;22556;-85
2023/10/22 00:18:34;;;;;;;14.40;12.20;;;;;;;14.29;100.00;96828.33;108409;1283;24453;-85
2023/10/22 00:21:06;;;;;;;22.40;19.90;;;;;;;14.29;100.00;96827.23;107193;1283;25339;-85
2023/10/22 00:23:35;;;;;;;23.50;21.50;;;;;;;14.30;100.00;96826.23;107063;1283;24243;-86
2023/10/22 00:26:03;;;;;;;13.00;11.70;;;;;;;14.28;100.00;96826.27;106694;1283;22596;-86
2023/10/22 00:28:35;;;;;;;15.90;14.30;;;;;;;14.27;100.00;96829.02;106636;1283;24361;-85
2023/10/22 00:31:03;;;;;;;9.10;8.20;;;;;;;14.23;100.00;96826.84;106655;1283;25471;-85
2023/10/22 00:33:30;;;;;;;7.30;4.60;;;;;;;14.21;100.00;96825.38;106614;1283;25470;-86
2023/10/22 00:35:59;;;;;;;7.80;3.90;;;;;;;14.19;100.00;96823.64;106687;1272;22540;-85
2023/10/22 00:38:27;;;;;;;7.80;5.00;;;;;;;14.17;100.00;96825.85;106485;1272;24295;-86
2023/10/22 00:40:56;;;;;;;8.10;7.30;;;;;;;14.15;100.00;96823.83;106629;1283;22551;-86
2023/10/22 00:43:24;;;;;;;7.00;5.70;;;;;;;14.11;100.00;96814.77;106515;1283;24222;-85
2023/10/22 00:45:53;;;;;;;6.80;6.00;;;;;;;14.10;100.00;96809.55;106661;1283;25466;-86
2023/10/22 00:48:21;;;;;;;12.40;9.90;;;;;;;14.09;100.00;96808.85;106588;1283;22779;-86
2023/10/22 00:50:50;;;;;;;6.00;4.90;;;;;;;14.09;100.00;96805.67;106645;1283;22557;-86
2023/10/22 00:53:19;;;;;;;7.00;4.70;;;;;;;14.08;100.00;96800.61;106462;1283;22705;-87
2023/10/22 00:55:48;;;;;;;6.20;4.40;;;;;;;14.05;100.00;96800.77;106533;1283;23916;-86
2023/10/22 00:58:20;;;;;;;17.30;15.90;;;;;;;14.01;100.00;96800.74;106570;1283;22546;-86
2023/10/22 01:00:48;;;;;;;9.10;6.40;;;;;;;14.00;100.00;96803.13;106540;1283;25242;-87
2023/10/22 01:03:17;;;;;;;8.00;5.50;;;;;;;14.02;100.00;96799.52;106519;1283;22528;-86
2023/10/22 01:05:45;;;;;;;5.30;4.30;;;;;;;14.04;100.00;96796.48;106643;1283;23886;-86
2023/10/22 01:08:13;;;;;;;6.70;5.90;;;;;;;14.06;100.00;96794.52;106503;1283;22572;-86
2023/10/22 01:10:41;;;;;;;8.30;6.10;;;;;;;14.03;100.00;96791.82;106507;1283;22564;-87
2023/10/22 01:13:10;;;;;;;35.70;33.10;;;;;;;13.99;100.00;96786.06;107209;1283;22534;-86
2023/10/22 01:15:38;;;;;;;17.60;15.90;;;;;;;13.97;100.00;96784.23;106665;1283;24140;-87
2023/10/22 01:18:06;;;;;;;8.00;5.30;;;;;;;13.97;100.00;96780.59;106660;1283;22572;-86
2023/10/22 01:20:34;;;;;;;2.90;2.30;;;;;;;13.98;100.00;96780.77;106505;1283;24243;-86
2023/10/22 01:23:03;;;;;;;4.40;2.50;;;;;;;13.98;100.00;96780.31;106577;1283;22534;-86
2023/10/22 01:25:31;;;;;;;3.30;1.90;;;;;;;13.99;100.00;96778.63;106535;1283;24393;-86
2023/10/22 01:28:00;;;;;;;2.40;1.80;;;;;;;14.02;100.00;96779.93;106588;1283;24376;-86
2023/10/22 01:30:30;;;;;;;7.40;4.20;;;;;;;14.00;100.00;96778.97;106465;1283;23137;-87
2023/10/22 01:33:02;;;;;;;11.10;5.50;;;;;;;13.95;100.00;96774.58;106446;1283;22530;-86
2023/10/22 01:35:30;;;;;;;15.10;6.20;;;;;;;13.90;100.00;96772.82;106413;1283;22534;-86
2023/10/22 01:37:58;;;;;;;8.20;4.40;;;;;;;13.87;100.00;96770.33;106668;1283;22705;-87
2023/10/22 01:40:26;;;;;;;7.20;3.40;;;;;;;13.82;100.00;96763.89;106438;1283;25305;-86
2023/10/22 01:42:54;;;;;;;5.00;3.30;;;;;;;13.79;100.00;96748.55;106441;1267;22545;-86
2023/10/22 01:45:24;;;;;;;5.00;3.30;;;;;;;13.76;100.00;96743.36;106562;1283;25377;-86
2023/10/22 01:47:51;;;;;;;7.40;3.90;;;;;;;13.72;100.00;96736.55;106584;1283;25425;-86
2023/10/22 01:50:20;;;;;;;9.30;7.60;;;;;;;13.69;100.00;96737.70;106605;1283;25357;-86
2023/10/22 01:52:47;;;;;;;5.80;3.50;;;;;;;13.70;100.00;96731.69;106789;1283;22619;-85
2023/10/22 01:55:15;;;;;;;5.10;2.90;;;;;;;13.72;100.00;96732.68;106520;1283;23883;-86
2023/10/22 01:57:44;;;;;;;5.50;2.80;;;;;;;13.73;100.00;96726.73;106573;1283;22570;-87
2023/10/22 02:00:12;;;;;;;5.00;2.30;;;;;;;13.74;100.00;96718.64;106580;1283;23149;-85
2023/10/22 02:02:43;;;;;;;5.20;2.20;;;;;;;13.73;100.00;96721.10;106685;1283;22928;-86
2023/10/22 02:05:11;;;;;;;5.80;2.50;;;;;;;13.71;100.00;96730.26;106363;1283;22540;-85
2023/10/22 02:07:39;;;;;;;4.90;2.70;;;;;;;13.70;100.00;96726.36;106626;1283;22643;-86
2023/10/22 02:10:08;;;;;;;6.80;3.00;;;;;;;13.71;100.00;96727.09;106422;1283;24366;-85
2023/10/22 02:12:37;;;;;;;5.90;3.30;;;;;;;13.73;100.00;96726.22;107953;1283;22653;-85
2023/10/22 02:15:06;;;;;;;5.30;3.20;;;;;;;13.76;100.00;96724.83;106783;1280;25421;-85
2023/10/22 02:17:34;;;;;;;8.70;3.50;;;;;;;13.78;100.00;96721.68;106462;1283;22537;-86
2023/10/22 02:20:02;;;;;;;8.20;6.00;;;;;;;13.77;100.00;96725.77;106369;1283;25650;-85
2023/10/22 02:22:30;;;;;;;13.20;9.40;;;;;;;13.77;100.00;96720.28;106551;1283;25436;-85
2023/10/22 02:24:59;;;;;;;10.10;8.70;;;;;;;13.78;100.00;96714.50;106555;1283;22547;-85
2023/10/22 02:27:26;;;;;;;10.00;8.60;;;;;;;13.81;100.00;96716.89;106560;1283;23907;-85
2023/10/22 02:29:54;;;;;;;9.60;7.20;;;;;;;13.84;100.00;96720.37;106467;1283;22526;-85
2023/10/22 02:32:22;;;;;;;8.50;5.60;;;;;;;13.88;100.00;96718.98;106571;1283;25356;-86
2023/10/22 02:34:52;;;;;;;7.20;4.90;;;;;;;13.88;100.00;96716.91;106507;1283;24134;-85
2023/10/22 02:37:20;;;;;;;9.90;6.10;;;;;;;13.89;100.00;96716.17;106618;1283;25400;-86
2023/10/22 02:39:48;;;;;;;9.30;7.30;;;;;;;13.89;100.00;96714.63;106411;1283;23919;-86
2023/10/22 02:42:17;;;;;;;12.60;7.50;;;;;;;13.88;100.00;96713.13;106372;1283;25235;-84
2023/10/22 02:44:45;;;;;;;9.40;6.70;;;;;;;13.89;100.00;96707.58;106609;1262;24263;-86
2023/10/22 02:47:13;;;;;;;9.50;5.60;;;;;;;13.90;100.00;96704.73;106535;1283;22652;-85
2023/10/22 02:49:41;;;;;;;8.30;5.50;;;;;;;13.92;100.00;96707.34;106576;1262;22652;-85
2023/10/22 02:52:09;;;;;;;8.10;6.50;;;;;;;13.95;100.00;96709.13;106504;1283;24190;-85
2023/10/22 02:54:37;;;;;;;9.40;7.50;;;;;;;13.97;100.00;96708.79;108888;1283;22565;-84
2023/10/22 02:57:05;;;;;;;8.10;6.20;;;;;;;14.00;100.00;96708.17;108509;1283;22550;-85
2023/10/22 02:59:33;;;;;;;8.20;6.60;;;;;;;14.02;100.00;96708.98;106393;1283;25443;-85
2023/10/22 03:02:02;;;;;;;10.40;7.30;;;;;;;14.01;100.00;96709.02;106444;1283;22632;-85
2023/10/22 03:04:30;;;;;;;8.90;6.80;;;;;;;13.98;100.00;96713.67;106432;1283;22540;-85
2023/10/22 03:06:58;;;;;;;9.00;7.60;;;;;;;13.95;100.00;96713.83;106638;1283;24247;-85
2023/10/22 03:09:26;;;;;;;9.30;7.50;;;;;;;13.95;100.00;96713.84;106628;1283;22654;-85
2023/10/22 03:11:54;;;;;;;11.00;8.20;;;;;;;13.95;100.00;96711.75;106515;1283;25268;-86
2023/10/22 03:14:22;;;;;;;10.10;8.20;;;;;;;13.96;100.00;96704.74;106577;1280;23465;-85
2023/10/22 03:16:50;;;;;;;15.40;12.50;;;;;;;13.99;100.00;96698.55;107404;1283;25287;-86
2023/10/22 03:19:19;;;;;;;15.90;14.40;;;;;;;14.00;100.00;96692.61;106850;1283;22543;-86
2023/10/22 03:21:47;;;;;;;16.20;14.80;;;;;;;14.01;100.00;96692.73;106585;1283;22621;-85
2023/10/22 03:24:17;;;;;;;18.50;16.80;;;;;;;14.03;100.00;96688.28;106450;1283;22540;-86
2023/10/22 03:26:46;;;;;;;14.00;12.70;;;;;;;14.05;100.00;96685.74;106614;1283;23931;-86
2023/10/22 03:29:14;;;;;;;13.60;12.30;;;;;;;14.04;100.00;96681.48;106669;1283;25569;-87
2023/10/22 03:31:42;;;;;;;11.90;10.10;;;;;;;14.03;100.00;96683.86;106528;1283;23929;-87
2023/10/22 03:34:10;;;;;;;11.20;9.70;;;;;;;13.99;100.00;96679.67;106549;1283;24394;-85
2023/10/22 03:36:39;;;;;;;10.60;9.60;;;;;;;13.99;100.00;96678.95;106612;1283;22678;-86
2023/10/22 03:39:08;;;;;;;13.50;10.80;;;;;;;13.99;100.00;96671.61;106641;1283;22580;-85
2023/10/22 03:41:36;;;;;;;13.80;12.40;;;;;;;13.98;100.00;96668.95;106516;1283;24240;-86
2023/10/22 03:44:05;;;;;;;14.20;13.00;;;;;;;13.96;100.00;96667.98;106622;1283;23148;-85
2023/10/22 03:46:33;;;;;;;12.10;10.80;;;;;;;13.94;100.00;96664.94;106627;1280;22577;-86
2023/10/22 03:49:01;;;;;;;12.30;11.10;;;;;;;13.91;100.00;96664.53;106520;1283;22622;-86
2023/10/22 03:51:29;;;;;;;12.60;11.40;;;;;;;13.88;100.00;96668.88;106492;1283;25732;-87
2023/10/22 03:53:57;;;;;;;11.90;10.80;;;;;;;13.87;100.00;96670.55;106639;1283;22664;-86
2023/10/22 03:56:25;;;;;;;12.40;11.30;;;;;;;13.86;100.00;96675.80;106471;1283;22531;-86
2023/10/22 03:58:53;;;;;;;12.40;11.30;;;;;;;13.85;100.00;96678.46;106573;1283;25433;-85
2023/10/22 04:01:21;;;;;;;11.30;10.20;;;;;;;13.85;100.00;96678.08;107883;1283;22586;-86
2023/10/22 04:03:49;;;;;;;9.80;8.80;;;;;;;13.85;100.00;96684.68;108431;1283;22918;-84
2023/10/22 04:06:20;;;;;;;11.80;10.60;;;;;;;13.87;100.00;96685.17;109495;1282;22566;-86
2023/10/22 04:08:48;;;;;;;13.40;12.20;;;;;;;13.86;100.00;96682.20;108253;1283;22593;-85
2023/10/22 04:11:20;;;;;;;13.00;11.70;;;;;;;13.84;100.00;96678.77;106499;1283;25400;-87
2023/10/22 04:18:16;;;;;;;13.30;12.00;;;;;;;13.83;100.00;96683.36;106552;1282;22670;-86
2023/10/22 04:20:45;;;;;;;14.30;12.90;;;;;;;13.83;100.00;96695.30;106655;1283;25497;-85
2023/10/22 04:23:13;;;;;;;15.90;14.20;;;;;;;13.84;100.00;96694.99;106535;1283;24222;-86
2023/10/22 04:25:43;;;;;;;15.80;14.40;;;;;;;13.84;100.00;96689.89;106623;1283;22537;-86
2023/10/22 04:28:15;;;;;;;15.90;14.50;;;;;;;13.85;100.00;96698.50;106567;1283;25539;-86
2023/10/22 04:30:44;;;;;;;17.00;15.30;;;;;;;13.86;100.00;96700.63;106516;1283;24042;-86
2023/10/22 04:33:12;;;;;;;16.10;14.70;;;;;;;13.86;100.00;96699.95;106405;1283;23929;-86
2023/10/22 04:35:41;;;;;;;16.10;14.50;;;;;;;13.87;100.00;96699.79;106495;1264;22538;-85
2023/10/22 04:38:09;;;;;;;16.80;15.10;;;;;;;13.87;100.00;96703.42;106553;1283;22562;-85
2023/10/22 04:40:37;;;;;;;17.60;15.80;;;;;;;13.91;100.00;96699.05;106518;1283;25353;-85
2023/10/22 04:43:05;;;;;;;18.30;16.40;;;;;;;13.92;100.00;96701.16;106595;1283;25339;-85
2023/10/22 04:45:32;;;;;;;18.90;17.00;;;;;;;13.95;100.00;96700.30;106541;1283;23157;-85
2023/10/22 04:48:00;;;;;;;18.60;16.80;;;;;;;13.95;100.00;96699.59;106566;1283;24279;-85
2023/10/22 04:50:29;;;;;;;20.80;18.60;;;;;;;13.92;100.00;96700.08;107525;1283;25348;-85
2023/10/22 04:52:57;;;;;;;19.90;18.10;;;;;;;13.91;100.00;96702.98;106361;1271;22583;-86
2023/10/22 04:55:25;;;;;;;18.40;16.60;;;;;;;13.90;100.00;96703.27;106602;1283;23767;-85
2023/10/22 04:57:55;;;;;;;21.20;19.40;;;;;;;13.91;100.00;96698.86;106560;1283;25351;-85
2023/10/22 05:00:23;;;;;;;21.20;19.10;;;;;;;13.91;100.00;96693.92;106379;1283;22649;-86
2023/10/22 05:02:51;;;;;;;23.80;21.60;;;;;;;13.90;100.00;96693.83;106455;1283;22740;-86
2023/10/22 05:05:21;;;;;;;24.00;21.80;;;;;;;13.90;100.00;96694.23;106667;1283;22533;-86
2023/10/22 05:07:51;;;;;;;21.70;19.60;;;;;;;13.90;100.00;96688.71;106698;1283;23886;-86
2023/10/22 05:10:19;;;;;;;20.50;18.80;;;;;;;13.87;100.00;96678.30;107203;1283;22530;-86
2023/10/22 05:12:47;;;;;;;18.80;17.10;;;;;;;13.84;100.00;96672.56;106632;1283;24248;-86
2023/10/22 05:15:16;;;;;;;41.20;38.10;;;;;;;13.81;100.00;96661.66;106384;1283;22611;-86
2023/10/22 05:17:46;;;;;;;20.40;18.50;;;;;;;13.78;100.00;96657.25;106573;1283;24394;-86
2023/10/22 05:20:14;;;;;;;15.70;14.20;;;;;;;13.73;100.00;96650.71;107269;1283;22563;-86
2023/10/22 05:22:44;;;;;;;17.00;15.20;;;;;;;13.67;100.00;96654.05;106557;1283;24240;-86
2023/10/22 05:25:12;;;;;;;19.50;17.70;;;;;;;13.66;100.00;96664.61;106499;1283;24251;-87
2023/10/22 05:27:42;;;;;;;18.50;16.60;;;;;;;13.68;100.00;96664.99;106456;1273;22609;-86
2023/10/22 05:30:11;;;;;;;15.60;14.10;;;;;;;13.70;100.00;96668.89;106674;1283;23888;-86
2023/10/22 05:32:39;;;;;;;14.00;12.50;;;;;;;13.72;100.00;96676.06;106590;1283;22553;-87
2023/10/22 05:35:08;;;;;;;11.30;10.20;;;;;;;13.74;100.00;96682.13;106448;1283;22540;-86
2023/10/22 05:37:35;;;;;;;11.60;10.50;;;;;;;13.74;100.00;96687.03;106465;1283;25533;-88
2023/10/22 05:40:04;;;;;;;14.60;12.30;;;;;;;13.76;100.00;96695.80;106416;1283;24228;-85
2023/10/22 05:42:35;;;;;;;12.10;10.50;;;;;;;13.78;100.00;96699.41;106464;1283;25356;-86
2023/10/22 05:45:04;;;;;;;11.50;9.80;;;;;;;13.78;100.00;96702.20;106384;1283;26641;-86
2023/10/22 05:47:32;;;;;;;13.90;12.50;;;;;;;13.78;100.00;96699.88;106478;1283;22559;-85
2023/10/22 05:50:00;;;;;;;12.70;11.50;;;;;;;13.78;100.00;96703.98;106429;1283;22530;-86
2023/10/22 05:52:28;;;;;;;12.80;11.60;;;;;;;13.78;100.00;96703.04;106568;1283;25482;-86
2023/10/22 05:54:56;;;;;;;13.90;12.60;;;;;;;13.79;100.00;96698.88;106871;1283;23303;-86
2023/10/22 05:57:28;;;;;;;13.80;12.40;;;;;;;13.81;100.00;96697.48;109772;1283;22571;-82
2023/10/22 05:59:57;;;;;;;16.30;14.70;;;;;;;13.84;100.00;96695.85;107184;1283;22554;-86
2023/10/22 06:02:25;;;;;;;14.90;13.50;;;;;;;13.86;100.00;96695.66;106601;1283;24245;-86
2023/10/22 06:04:53;;;;;;;14.20;12.70;;;;;;;13.88;100.00;96692.15;106478;1283;22561;-86
2023/10/22 06:07:22;;;;;;;16.50;14.80;;;;;;;13.89;100.00;96694.98;106609;1283;23960;-86
2023/10/22 06:09:50;;;;;;;14.40;10.60;;;;;;;13.87;100.00;96689.89;106556;1283;22736;-86
2023/10/22 06:12:23;;;;;;;18.10;16.60;;;;;;;13.83;100.00;96689.27;106542;1283;22731;-86
2023/10/22 06:14:51;;;;;;;16.90;15.20;;;;;;;13.82;100.00;96688.54;106525;1283;25425;-86
2023/10/22 06:17:19;;;;;;;17.40;15.80;;;;;;;13.80;100.00;96688.09;106556;1283;22561;-86
2023/10/22 06:19:47;;;;;;;11.00;8.80;;;;;;;13.78;100.00;96691.30;106666;1283;24292;-86
2023/10/22 06:22:15;;;;;;;10.10;8.50;;;;;;;13.76;100.00;96689.23;106542;1283;22710;-86
2023/10/22 06:24:45;;;;;;;9.70;8.70;;;;;;;13.73;100.00;96691.61;106508;1283;25351;-86
2023/10/22 06:27:16;;;;;;;12.30;9.90;;;;;;;13.70;100.00;96687.14;106636;1283;25398;-85
2023/10/22 06:29:48;;;;;;;10.50;9.50;;;;;;;13.66;100.00;96691.75;106552;1283;22543;-85
2023/10/22 06:32:16;;;;;;;10.00;9.10;;;;;;;13.62;100.00;96694.70;106667;1279;23701;-86
2023/10/22 06:34:44;;;;;;;9.00;7.80;;;;;;;13.60;100.00;96700.60;106755;1283;22644;-85
2023/10/22 06:37:12;;;;;;;14.70;14.00;;;;;;;13.62;100.00;96700.57;106810;1283;22817;-85
2023/10/22 06:39:40;;;;;;;14.30;12.80;;;;;;;13.62;100.00;96697.64;106632;1283;22771;-86
2023/10/22 06:42:08;;;;;;;21.20;19.30;;;;;;;13.70;100.00;96699.98;106514;1283;22581;-86
2023/10/22 06:44:41;;;;;;;24.60;22.40;;;;;;;13.77;100.00;96701.00;106607;1283;22660;-85
2023/10/22 06:47:09;;;;;;;19.80;18.00;;;;;;;13.82;100.00;96702.63;106586;1283;25587;-84
2023/10/22 06:49:38;;;;;;;18.10;16.30;;;;;;;13.87;100.00;96702.03;106624;1283;22545;-85
2023/10/22 06:52:06;;;;;;;18.90;17.10;;;;;;;13.87;100.00;96701.04;106621;1283;23844;-84
2023/10/22 06:54:34;;;;;;;18.10;16.30;;;;;;;13.88;100.00;96700.27;106549;1283;24372;-85
2023/10/22 06:57:04;;;;;;;18.00;16.40;;;;;;;13.89;100.00;96701.70;106485;1283;22534;-85
2023/10/22 06:59:32;;;;;;;23.10;21.00;;;;;;;13.91;100.00;96701.75;106577;1283;22562;-84
2023/10/22 07:02:00;;;;;;;22.50;20.50;;;;;;;13.93;100.00;96701.40;106481;1283;22770;-85
2023/10/22 07:04:28;;;;;;;17.00;14.60;;;;;;;13.95;100.00;96703.25;106645;1283;22591;-86
2023/10/22 07:06:56;;;;;;;16.40;14.80;;;;;;;13.96;100.00;96699.01;106892;1276;22542;-86
2023/10/22 07:09:24;;;;;;;15.80;14.20;;;;;;;13.99;100.00;96701.41;106478;1283;22632;-86
2023/10/22 07:11:52;;;;;;;19.00;14.30;;;;;;;14.07;100.00;96700.90;106641;1283;24109;-86
2023/10/22 07:14:20;;;;;;;15.20;13.60;;;;;;;14.15;100.00;96697.67;106566;1259;25671;-86
2023/10/22 07:16:49;;;;;;;28.10;25.50;;;;;;;14.20;100.00;96698.57;106623;1282;23883;-86
2023/10/22 07:19:17;;;;;;;26.90;24.50;;;;;;;14.27;100.00;96702.30;106618;1283;22539;-86
2023/10/22 07:21:45;;;;;;;31.90;29.20;;;;;;;14.34;100.00;96707.81;106762;1283;22540;-86
2023/10/22 07:24:13;;;;;;;17.40;15.80;;;;;;;14.42;100.00;96712.46;107118;1283;22594;-86
2023/10/22 07:26:41;;;;;;;14.60;13.30;;;;;;;14.46;100.00;96717.14;106759;1283;22546;-87
2023/10/22 07:29:09;;;;;;;22.20;20.30;;;;;;;14.50;100.00;96718.32;107235;1283;25901;-85
2023/10/22 07:31:39;;;;;;;16.60;15.10;;;;;;;14.56;100.00;96720.34;107163;1272;24293;-87
2023/10/22 07:34:07;;;;;;;16.90;15.10;;;;;;;14.59;100.00;96724.05;106578;1283;25413;-86
2023/10/22 07:36:35;;;;;;;15.60;14.10;;;;;;;14.59;100.00;96727.99;106665;1283;24332;-85
2023/10/22 07:39:03;;;;;;;16.60;14.90;;;;;;;14.60;100.00;96735.59;106466;1283;24274;-85
2023/10/22 07:41:30;;;;;;;17.90;15.30;;;;;;;14.60;100.00;96741.02;106525;1283;25520;-87
2023/10/22 07:43:58;;;;;;;16.20;14.80;;;;;;;14.60;100.00;96743.12;106565;1283;22580;-86
2023/10/22 07:46:26;;;;;;;16.50;14.90;;;;;;;14.62;100.00;96742.79;106705;1283;22545;-86
2023/10/22 07:48:55;;;;;;;16.50;14.90;;;;;;;14.66;100.00;96745.48;109220;1283;22512;-84
2023/10/22 07:51:27;;;;;;;17.70;16.00;;;;;;;14.70;100.00;96748.67;108502;1283;24332;-85
2023/10/22 07:53:55;;;;;;;19.60;17.90;;;;;;;14.70;100.00;96745.11;108461;1283;22649;-85
2023/10/22 07:56:23;;;;;;;21.10;19.40;;;;;;;14.72;100.00;96749.88;108401;1283;24199;-85
2023/10/22 07:58:51;;;;;;;21.10;19.30;;;;;;;14.73;100.00;96748.98;106555;1283;22746;-85
2023/10/22 08:01:19;;;;;;;17.90;16.30;;;;;;;14.77;100.00;96747.38;106614;1283;24226;-86
2023/10/22 08:03:49;;;;;;;17.20;15.60;;;;;;;14.83;100.00;96743.54;106489;1283;23145;-86
2023/10/22 08:06:17;;;;;;;18.50;16.70;;;;;;;14.86;100.00;96745.95;106584;1283;25297;-85
2023/10/22 08:08:45;;;;;;;18.20;16.50;;;;;;;14.89;100.00;96742.67;106636;1283;24395;-86
2023/10/22 08:11:14;;;;;;;18.50;16.60;;;;;;;14.93;100.00;96738.80;106592;1283;25316;-85
2023/10/22 08:13:42;;;;;;;19.30;17.40;;;;;;;14.99;100.00;96736.38;106513;1283;23903;-85
2023/10/22 08:16:11;;;;;;;26.00;23.80;;;;;;;15.05;100.00;96735.17;106611;1283;22561;-85
2023/10/22 08:18:41;;;;;;;24.80;22.50;;;;;;;15.09;100.00;96728.30;106618;1283;25307;-86
2023/10/22 08:21:10;;;;;;;15.80;14.40;;;;;;;15.19;100.00;96731.05;106659;1283;25301;-85
2023/10/22 08:23:41;;;;;;;15.20;14.70;;;;;;;15.27;100.00;96730.73;106565;1283;24700;-86
2023/10/22 08:26:09;;;;;;;13.50;12.10;;;;;;;15.31;100.00;96729.35;106574;1283;24267;-86
2023/10/22 08:28:39;;;;;;;13.60;12.30;;;;;;;15.22;100.00;96717.60;106726;1283;22576;-85
2023/10/22 08:31:07;;;;;;;12.80;11.60;;;;;;;15.27;100.00;96730.42;106579;1283;25548;-85
2023/10/22 08:33:35;;;;;;;11.30;10.20;;;;;;;15.28;100.00;96725.41;106716;1283;23409;-85
2023/10/22 08:36:05;;;;;;;10.90;9.70;;;;;;;15.32;100.00;96723.32;106540;1283;24279;-85
2023/10/22 08:38:33;;;;;;;11.00;9.90;;;;;;;15.34;100.00;96724.66;106709;1283;22963;-86
2023/10/22 08:41:02;;;;;;;8.90;7.80;;;;;;;15.32;100.00;96725.65;106450;1283;22664;-85
2023/10/22 08:43:32;;;;;;;9.50;8.40;;;;;;;15.30;100.00;96724.66;106542;1283;22549;-85
2023/10/22 08:46:01;;;;;;;11.70;9.10;;;;;;;15.30;100.00;96723.81;106586;1283;25240;-85
2023/10/22 08:48:31;;;;;;;10.80;9.20;;;;;;;15.29;100.00;96725.42;106506;1283;22531;-85
2023/10/22 08:51:00;;;;;;;13.50;10.10;;;;;;;15.35;100.00;96732.91;106665;1283;25420;-86
2023/10/22 08:53:29;;;;;;;14.30;10.40;;;;;;;15.38;100.00;96731.41;106628;1283;22600;-84
2023/10/22 08:55:58;;;;;;;12.70;11.50;;;;;;;15.36;100.00;96733.00;106595;1283;24275;-86
2023/10/22 08:58:26;;;;;;;11.20;10.10;;;;;;;15.34;100.00;96739.96;106441;1283;22748;-85
2023/10/22 09:00:54;;;;;;;10.30;9.20;;;;;;;15.34;100.00;96740.11;106565;1264;22549;-85
2023/10/22 09:03:25;;;;;;;10.00;8.70;;;;;;;15.38;100.00;96742.91;106592;1283;25422;-85
2023/10/22 09:05:53;;;;;;;11.70;10.60;;;;;;;15.43;100.00;96747.57;106600;1259;24278;-85
2023/10/22 09:08:40;;;;;;;9.60;7.70;;;;;;;15.44;100.00;96745.58;106667;1283;22633;-86
2023/10/22 09:11:15;;;;;;;9.40;8.30;;;;;;;15.42;100.00;96749.25;106595;1283;25377;-85
2023/10/22 09:13:44;;;;;;;9.40;8.50;;;;;;;15.38;100.00;96748.48;106629;1283;22729;-84
2023/10/22 09:16:39;;;;;;;11.10;10.00;;;;;;;15.37;100.00;96751.55;106485;1283;22660;-86
2023/10/22 09:19:09;;;;;;;12.40;11.20;;;;;;;15.36;100.00;96751.63;106685;1283;22654;-85
2023/10/22 09:21:44;;;;;;;12.60;11.40;;;;;;;15.34;100.00;96755.14;106608;1283;25407;-85
2023/10/22 09:24:13;;;;;;;12.60;11.40;;;;;;;15.32;100.00;96760.52;106752;1283;26760;-86
2023/10/22 09:26:49;;;;;;;14.30;12.60;;;;;;;15.27;100.00;96762.66;107355;1283;24219;-85
2023/10/22 09:29:17;;;;;;;14.30;12.90;;;;;;;15.22;100.00;96765.14;106718;1283;23217;-87
2023/10/22 09:31:50;;;;;;;13.70;12.40;;;;;;;15.19;100.00;96764.61;106501;1276;26712;-85
2023/10/22 09:34:38;;;;;;;15.80;11.90;;;;;;;15.15;100.00;96767.39;106488;1283;24241;-85
2023/10/22 09:37:07;;;;;;;12.90;11.60;;;;;;;15.08;100.00;96770.27;106740;1283;24425;-85
2023/10/22 09:39:40;;;;;;;14.70;13.20;;;;;;;15.03;100.00;96770.86;108951;1283;22582;-85
2023/10/22 09:42:12;;;;;;;14.70;13.00;;;;;;;15.00;100.00;96770.35;107418;1283;24765;-86
2023/10/22 09:44:52;;;;;;;14.40;13.00;;;;;;;14.97;100.00;96773.91;106622;1273;24223;-85
2023/10/22 09:47:20;;;;;;;14.00;12.40;;;;;;;14.94;100.00;96776.33;106418;1283;188471;-86
2023/10/22 09:50:07;;;;;;;14.00;12.10;;;;;;;14.90;100.00;96781.67;106735;1283;22613;-85
2023/10/22 09:52:42;;;;;;;13.50;11.90;;;;;;;14.86;100.00;96782.36;106574;1283;23896;-84
2023/10/22 09:55:13;;;;;;;13.60;11.70;;;;;;;14.83;100.00;96783.20;106892;1283;23898;-85
2023/10/22 09:57:46;;;;;;;12.60;11.30;;;;;;;14.80;100.00;96785.16;106661;1277;23918;-84
2023/10/22 10:00:19;;;;;;;13.10;11.70;;;;;;;14.77;100.00;96785.87;106502;1283;22766;-86
2023/10/22 10:02:47;;;;;;;13.40;10.80;;;;;;;14.71;100.00;96782.64;106582;1280;22544;-86
2023/10/22 10:05:20;;;;;;;8.50;7.50;;;;;;;14.69;100.00;96780.88;106677;1283;25413;-87
2023/10/22 10:07:49;;;;;;;8.90;8.00;;;;;;;14.66;100.00;96784.46;106586;1281;25597;-89
2023/10/22 10:10:20;;;;;;;8.90;7.90;;;;;;;14.63;100.00;96785.70;106511;1283;25291;-88
2023/10/22 10:12:48;;;;;;;7.70;6.90;;;;;;;14.63;100.00;96785.01;106696;1283;23309;-86
2023/10/22 10:15:30;;;;;;;9.80;7.80;;;;;;;14.63;100.00;96780.14;106764;1283;24308;-88
2023/10/22 10:18:00;;;;;;;9.70;8.50;;;;;;;14.62;100.00;96775.30;106603;1281;22652;-87
2023/10/22 10:20:32;;;;;;;9.50;8.60;;;;;;;14.64;100.00;96778.84;106617;1283;22683;-86
2023/10/22 10:23:12;;;;;;;8.80;7.90;;;;;;;14.65;100.00;96787.45;106570;1283;24269;-88
2023/10/22 10:25:42;;;;;;;9.90;8.80;;;;;;;14.65;100.00;96783.14;106659;1283;22537;-88
2023/10/22 10:28:13;;;;;;;10.30;9.30;;;;;;;14.66;100.00;96785.48;106588;1283;23943;-87
2023/10/22 10:30:41;;;;;;;8.30;6.70;;;;;;;14.68;100.00;96794.87;106543;1283;22551;-87
2023/10/22 10:33:12;;;;;;;7.40;6.10;;;;;;;14.67;100.00;96787.04;106678;1283;25358;-88
2023/10/22 10:35:49;;;;;;;7.80;6.30;;;;;;;14.67;100.00;96796.20;106663;1280;22540;-90
2023/10/22 10:38:20;;;;;;;7.20;5.80;;;;;;;14.61;100.00;96793.79;106727;1283;23004;-90
2023/10/22 10:40:51;;;;;;;4.90;3.80;;;;;;;14.51;100.00;96801.44;106667;1283;25170;-89
2023/10/22 10:44:19;;;;;;;5.00;4.00;;;;;;;14.36;100.00;96793.34;106692;1283;22554;-90
2023/10/22 10:46:47;;;;;;;7.10;5.00;;;;;;;14.21;100.00;96797.13;106190;1293;22547;-89
2023/10/22 10:49:54;;;;;;;6.40;4.70;;;;;;;14.19;100.00;96794.16;106102;1270;22638;-88
2023/10/22 10:52:22;;;;;;;7.70;4.20;;;;;;;14.20;100.00;96802.30;106485;1283;24241;-88
2023/10/22 10:55:15;;;;;;;8.00;4.50;;;;;;;14.24;100.00;96804.71;106689;1283;22536;-87
2023/10/22 10:57:47;;;;;;;6.80;4.90;;;;;;;14.30;100.00;96799.45;106658;1283;25541;-89
2023/10/22 11:00:19;;;;;;;10.00;6.30;;;;;;;14.40;100.00;96807.13;106817;1283;22546;-87
2023/10/22 11:02:50;;;;;;;8.70;6.30;;;;;;;14.46;100.00;96806.79;106653;1283;23916;-88
2023/10/22 11:05:32;;;;;;;7.10;5.60;;;;;;;14.53;100.00;96805.89;106669;1283;23920;-88
2023/10/22 11:08:03;;;;;;;7.50;5.70;;;;;;;14.60;100.00;96811.19;106604;1283;22809;-87
2023/10/22 11:10:36;;;;;;;9.70;6.40;;;;;;;14.65;100.00;96802.95;106474;1283;23352;-87
2023/10/22 11:13:06;;;;;;;9.50;6.90;;;;;;;14.69;100.00;96806.92;106565;1283;22533;-87
2023/10/22 11:15:36;;;;;;;10.10;6.00;;;;;;;14.77;100.00;96810.90;106693;1283;23920;-88
2023/10/22 11:18:10;;;;;;;9.30;7.00;;;;;;;14.82;100.00;96812.11;106624;1283;25349;-86
2023/10/22 11:20:42;;;;;;;10.70;6.80;;;;;;;14.84;100.00;96814.00;106592;1283;22563;-87
2023/10/22 11:23:19;;;;;;;10.10;7.10;;;;;;;14.85;100.00;96814.17;106395;1283;25370;-87